sensor_id;sensor_type;location;lat;lon;timestamp;pressure;altitude;pressure_sealevel;temperature;humidity
18795;BME280;29610;49.022;12.114;2023-03-03T00:01:42;97822.00;;;2.42;100.00
18795;BME280;29610;49.022;12.114;2023-03-03T00:04:10;97824.91;;;2.35;100.00
18795;BME280;29610;49.022;12.114;2023-03-03T00:06:39;97826.78;;;2.20;100.00
18795;BME280;29610;49.022;12.114;2023-03-03T00:09:08;97834.56;;;2.26;100.00
18795;BME280;29610;49.022;12.114;2023-03-03T00:11:37;97835.91;;;2.29;100.00
18795;BME280;29610;49.022;12.114;2023-03-03T00:14:21;97838.59;;;2.34;100.00
18795;BME280;29610;49.022;12.114;2023-03-03T00:16:50;97834.06;;;2.39;100.00
18795;BME280;29610;49.022;12.114;2023-03-03T00:19:20;97833.78;;;2.36;100.00
18795;BME280;29610;49.022;12.114;2023-03-03T00:21:51;97830.28;;;2.30;100.00
18795;BME280;29610;49.022;12.114;2023-03-03T00:24:29;97830.78;;;2.22;100.00
18795;BME280;29610;49.022;12.114;2023-03-03T00:27:20;97827.56;;;2.15;100.00
18795;BME280;29610;49.022;12.114;2023-03-03T00:29:56;97827.56;;;2.10;100.00
18795;BME280;29610;49.022;12.114;2023-03-03T00:32:29;97837.19;;;2.11;100.00
18795;BME280;29610;49.022;12.114;2023-03-03T00:35:22;97833.16;;;2.04;100.00
18795;BME280;29610;49.022;12.114;2023-03-03T00:37:55;97821.88;;;1.97;100.00
18795;BME280;29610;49.022;12.114;2023-03-03T00:40:26;97837.94;;;1.92;100.00
18795;BME280;29610;49.022;12.114;2023-03-03T00:43:00;97833.91;;;1.89;100.00
18795;BME280;29610;49.022;12.114;2023-03-03T00:45:39;97835.53;;;1.95;100.00
18795;BME280;29610;49.022;12.114;2023-03-03T00:48:24;97842.22;;;1.88;100.00
18795;BME280;29610;49.022;12.114;2023-03-03T00:50:54;97836.81;;;1.78;100.00
18795;BME280;29610;49.022;12.114;2023-03-03T00:53:26;97838.66;;;1.72;100.00
18795;BME280;29610;49.022;12.114;2023-03-03T00:55:56;97835.97;;;1.67;100.00
18795;BME280;29610;49.022;12.114;2023-03-03T00:58:25;97838.09;;;1.65;100.00
18795;BME280;29610;49.022;12.114;2023-03-03T01:00:56;97832.97;;;1.59;100.00
18795;BME280;29610;49.022;12.114;2023-03-03T01:03:35;97842.34;;;1.56;100.00
18795;BME280;29610;49.022;12.114;2023-03-03T01:06:04;97840.97;;;1.53;100.00
18795;BME280;29610;49.022;12.114;2023-03-03T01:08:33;97838.25;;;1.48;100.00
18795;BME280;29610;49.022;12.114;2023-03-03T01:11:07;97833.22;;;1.57;100.00
18795;BME280;29610;49.022;12.114;2023-03-03T01:13:40;97831.28;;;1.47;100.00
18795;BME280;29610;49.022;12.114;2023-03-03T01:16:11;97829.72;;;1.57;100.00
18795;BME280;29610;49.022;12.114;2023-03-03T01:18:41;97828.94;;;1.56;100.00
18795;BME280;29610;49.022;12.114;2023-03-03T01:21:11;97826.47;;;1.44;100.00
18795;BME280;29610;49.022;12.114;2023-03-03T01:23:40;97824.28;;;1.36;100.00
18795;BME280;29610;49.022;12.114;2023-03-03T01:26:08;97827.78;;;1.37;100.00
18795;BME280;29610;49.022;12.114;2023-03-03T01:28:38;97835.13;;;1.20;100.00
18795;BME280;29610;49.022;12.114;2023-03-03T01:31:07;97824.75;;;1.28;100.00
18795;BME280;29610;49.022;12.114;2023-03-03T01:33:37;97823.38;;;1.21;100.00
18795;BME280;29610;49.022;12.114;2023-03-03T01:36:07;97828.75;;;1.21;100.00
18795;BME280;29610;49.022;12.114;2023-03-03T01:38:36;97826.31;;;1.19;100.00
18795;BME280;29610;49.022;12.114;2023-03-03T01:41:05;97831.41;;;1.21;100.00
18795;BME280;29610;49.022;12.114;2023-03-03T01:43:42;97831.13;;;1.17;100.00
18795;BME280;29610;49.022;12.114;2023-03-03T01:46:41;97832.97;;;1.17;100.00
18795;BME280;29610;49.022;12.114;2023-03-03T01:49:17;97824.16;;;1.21;100.00
18795;BME280;29610;49.022;12.114;2023-03-03T01:51:53;97827.06;;;1.15;100.00
18795;BME280;29610;49.022;12.114;2023-03-03T01:54:28;97825.03;;;1.27;100.00
18795;BME280;29610;49.022;12.114;2023-03-03T01:57:01;97818.56;;;1.23;100.00
18795;BME280;29610;49.022;12.114;2023-03-03T01:59:34;97824.66;;;1.13;100.00
18795;BME280;29610;49.022;12.114;2023-03-03T02:02:04;97828.69;;;1.16;100.00
18795;BME280;29610;49.022;12.114;2023-03-03T02:04:35;97824.94;;;1.17;100.00
18795;BME280;29610;49.022;12.114;2023-03-03T02:07:07;97828.75;;;1.21;100.00
18795;BME280;29610;49.022;12.114;2023-03-03T02:09:48;97833.03;;;1.22;100.00
18795;BME280;29610;49.022;12.114;2023-03-03T02:12:22;97816.97;;;1.22;100.00
18795;BME280;29610;49.022;12.114;2023-03-03T02:14:53;97823.13;;;1.22;100.00
18795;BME280;29610;49.022;12.114;2023-03-03T02:17:22;97827.59;;;1.12;100.00
18795;BME280;29610;49.022;12.114;2023-03-03T02:20:00;97822.72;;;1.04;100.00
18795;BME280;29610;49.022;12.114;2023-03-03T02:22:40;97818.75;;;1.06;100.00
18795;BME280;29610;49.022;12.114;2023-03-03T02:25:21;97831.78;;;0.98;100.00
18795;BME280;29610;49.022;12.114;2023-03-03T02:27:56;97834.38;;;0.88;100.00
18795;BME280;29610;49.022;12.114;2023-03-03T02:30:24;97835.81;;;0.69;100.00
18795;BME280;29610;49.022;12.114;2023-03-03T02:32:54;97830.88;;;0.82;100.00
18795;BME280;29610;49.022;12.114;2023-03-03T02:35:30;97839.41;;;0.79;100.00
18795;BME280;29610;49.022;12.114;2023-03-03T02:38:17;97838.84;;;0.77;100.00
18795;BME280;29610;49.022;12.114;2023-03-03T02:41:08;97834.56;;;0.76;100.00
18795;BME280;29610;49.022;12.114;2023-03-03T02:43:48;97840.69;;;0.77;100.00
18795;BME280;29610;49.022;12.114;2023-03-03T02:46:21;97841.53;;;0.77;100.00
18795;BME280;29610;49.022;12.114;2023-03-03T02:48:49;97830.09;;;0.87;100.00
18795;BME280;29610;49.022;12.114;2023-03-03T02:51:18;97838.63;;;0.84;100.00
18795;BME280;29610;49.022;12.114;2023-03-03T02:53:47;97835.34;;;0.72;100.00
18795;BME280;29610;49.022;12.114;2023-03-03T02:56:16;97837.91;;;0.62;100.00
18795;BME280;29610;49.022;12.114;2023-03-03T02:58:46;97837.09;;;0.61;100.00
18795;BME280;29610;49.022;12.114;2023-03-03T03:01:15;97837.16;;;0.66;100.00
18795;BME280;29610;49.022;12.114;2023-03-03T03:03:45;97844.63;;;0.64;100.00
18795;BME280;29610;49.022;12.114;2023-03-03T03:06:18;97850.53;;;0.66;100.00
18795;BME280;29610;49.022;12.114;2023-03-03T03:08:47;97841.41;;;0.62;100.00
18795;BME280;29610;49.022;12.114;2023-03-03T03:11:16;97842.44;;;0.61;100.00
18795;BME280;29610;49.022;12.114;2023-03-03T03:13:46;97836.53;;;0.59;100.00
18795;BME280;29610;49.022;12.114;2023-03-03T03:16:15;97840.22;;;0.53;100.00
18795;BME280;29610;49.022;12.114;2023-03-03T03:18:43;97842.91;;;0.53;100.00
18795;BME280;29610;49.022;12.114;2023-03-03T03:21:13;97840.44;;;0.47;100.00
18795;BME280;29610;49.022;12.114;2023-03-03T03:23:42;97837.31;;;0.55;100.00
18795;BME280;29610;49.022;12.114;2023-03-03T03:26:12;97839.97;;;0.55;100.00
18795;BME280;29610;49.022;12.114;2023-03-03T03:28:41;97831.97;;;0.55;100.00
18795;BME280;29610;49.022;12.114;2023-03-03T03:31:11;97834.63;;;0.55;100.00
18795;BME280;29610;49.022;12.114;2023-03-03T03:33:40;97839.69;;;0.51;100.00
18795;BME280;29610;49.022;12.114;2023-03-03T03:36:10;97841.06;;;0.54;100.00
18795;BME280;29610;49.022;12.114;2023-03-03T03:38:40;97834.13;;;0.58;100.00
18795;BME280;29610;49.022;12.114;2023-03-03T03:41:11;97826.88;;;0.53;100.00
18795;BME280;29610;49.022;12.114;2023-03-03T03:43:40;97839.66;;;0.46;100.00
18795;BME280;29610;49.022;12.114;2023-03-03T03:46:08;97839.09;;;0.44;100.00
18795;BME280;29610;49.022;12.114;2023-03-03T03:48:39;97842.22;;;0.36;100.00
18795;BME280;29610;49.022;12.114;2023-03-03T03:51:11;97840.38;;;0.37;100.00
18795;BME280;29610;49.022;12.114;2023-03-03T03:53:40;97842.59;;;0.45;100.00
18795;BME280;29610;49.022;12.114;2023-03-03T03:56:09;97847.41;;;0.48;100.00
18795;BME280;29610;49.022;12.114;2023-03-03T03:58:40;97846.03;;;0.45;100.00
18795;BME280;29610;49.022;12.114;2023-03-03T04:01:12;97844.44;;;0.44;100.00
18795;BME280;29610;49.022;12.114;2023-03-03T04:03:47;97845.19;;;0.40;100.00
18795;BME280;29610;49.022;12.114;2023-03-03T04:06:19;97842.78;;;0.38;100.00
18795;BME280;29610;49.022;12.114;2023-03-03T04:08:48;97851.78;;;0.32;100.00
18795;BME280;29610;49.022;12.114;2023-03-03T04:11:19;97850.19;;;0.31;100.00
18795;BME280;29610;49.022;12.114;2023-03-03T04:13:47;97852.28;;;0.29;100.00
18795;BME280;29610;49.022;12.114;2023-03-03T04:16:16;97855.53;;;0.31;100.00
18795;BME280;29610;49.022;12.114;2023-03-03T04:18:47;97858.75;;;0.33;100.00
18795;BME280;29610;49.022;12.114;2023-03-03T04:21:17;97853.94;;;0.30;100.00
18795;BME280;29610;49.022;12.114;2023-03-03T04:23:46;97852.81;;;0.26;100.00
18795;BME280;29610;49.022;12.114;2023-03-03T04:26:14;97847.41;;;0.21;100.00
18795;BME280;29610;49.022;12.114;2023-03-03T04:28:44;97847.91;;;0.18;100.00
18795;BME280;29610;49.022;12.114;2023-03-03T04:31:13;97855.16;;;0.23;100.00
18795;BME280;29610;49.022;12.114;2023-03-03T04:33:43;97854.88;;;0.19;100.00
18795;BME280;29610;49.022;12.114;2023-03-03T04:36:13;97843.69;;;0.22;100.00
18795;BME280;29610;49.022;12.114;2023-03-03T04:38:43;97852.50;;;0.23;100.00
18795;BME280;29610;49.022;12.114;2023-03-03T04:41:11;97859.28;;;0.30;100.00
18795;BME280;29610;49.022;12.114;2023-03-03T04:43:41;97857.13;;;0.32;100.00
18795;BME280;29610;49.022;12.114;2023-03-03T04:46:11;97858.56;;;0.40;100.00
18795;BME280;29610;49.022;12.114;2023-03-03T04:48:40;97860.28;;;0.51;100.00
18795;BME280;29610;49.022;12.114;2023-03-03T04:51:10;97859.72;;;0.49;100.00
18795;BME280;29610;49.022;12.114;2023-03-03T04:53:40;97857.34;;;0.52;100.00
18795;BME280;29610;49.022;12.114;2023-03-03T04:56:09;97859.78;;;0.54;100.00
18795;BME280;29610;49.022;12.114;2023-03-03T04:58:38;97868.16;;;0.62;100.00
18795;BME280;29610;49.022;12.114;2023-03-03T05:01:09;97870.31;;;0.65;100.00
18795;BME280;29610;49.022;12.114;2023-03-03T05:03:40;97868.94;;;0.63;100.00
18795;BME280;29610;49.022;12.114;2023-03-03T05:06:09;97869.19;;;0.61;100.00
18795;BME280;29610;49.022;12.114;2023-03-03T05:08:39;97875.25;;;0.52;100.00
18795;BME280;29610;49.022;12.114;2023-03-03T05:11:12;97878.59;;;0.64;100.00
18795;BME280;29610;49.022;12.114;2023-03-03T05:13:41;97870.91;;;0.72;100.00
18795;BME280;29610;49.022;12.114;2023-03-03T05:16:10;97873.53;;;0.67;100.00
18795;BME280;29610;49.022;12.114;2023-03-03T05:18:39;97870.25;;;0.60;100.00
18795;BME280;29610;49.022;12.114;2023-03-03T05:21:08;97880.56;;;0.73;100.00
18795;BME280;29610;49.022;12.114;2023-03-03T05:23:36;97878.97;;;0.77;100.00
18795;BME280;29610;49.022;12.114;2023-03-03T05:26:07;97875.78;;;0.80;100.00
18795;BME280;29610;49.022;12.114;2023-03-03T05:28:35;97878.91;;;0.72;100.00
18795;BME280;29610;49.022;12.114;2023-03-03T05:31:04;97879.19;;;0.71;100.00
18795;BME280;29610;49.022;12.114;2023-03-03T05:33:33;97888.44;;;0.90;100.00
18795;BME280;29610;49.022;12.114;2023-03-03T05:36:02;97881.47;;;0.89;100.00
18795;BME280;29610;49.022;12.114;2023-03-03T05:38:31;97889.81;;;0.92;100.00
18795;BME280;29610;49.022;12.114;2023-03-03T05:41:00;97885.66;;;1.06;100.00
18795;BME280;29610;49.022;12.114;2023-03-03T05:43:30;97885.75;;;1.21;100.00
18795;BME280;29610;49.022;12.114;2023-03-03T05:45:59;97894.00;;;1.15;100.00
18795;BME280;29610;49.022;12.114;2023-03-03T05:48:28;97891.56;;;1.13;100.00
18795;BME280;29610;49.022;12.114;2023-03-03T05:50:58;97887.25;;;1.07;100.00
18795;BME280;29610;49.022;12.114;2023-03-03T05:53:27;97890.38;;;0.99;100.00
18795;BME280;29610;49.022;12.114;2023-03-03T05:55:56;97888.84;;;0.77;100.00
18795;BME280;29610;49.022;12.114;2023-03-03T05:58:25;97902.78;;;0.79;100.00
18795;BME280;29610;49.022;12.114;2023-03-03T06:00:55;97901.97;;;0.78;100.00
18795;BME280;29610;49.022;12.114;2023-03-03T06:03:24;97904.69;;;0.83;100.00
18795;BME280;29610;49.022;12.114;2023-03-03T06:05:53;97912.22;;;0.86;100.00
18795;BME280;29610;49.022;12.114;2023-03-03T06:08:22;97906.34;;;0.84;100.00
18795;BME280;29610;49.022;12.114;2023-03-03T06:10:50;97905.66;;;0.72;100.00
18795;BME280;29610;49.022;12.114;2023-03-03T06:16:54;97913.44;;;0.74;100.00
18795;BME280;29610;49.022;12.114;2023-03-03T06:19:24;97907.56;;;0.72;100.00
18795;BME280;29610;49.022;12.114;2023-03-03T06:21:53;97915.34;;;0.78;100.00
18795;BME280;29610;49.022;12.114;2023-03-03T06:24:22;97910.81;;;0.79;100.00
18795;BME280;29610;49.022;12.114;2023-03-03T06:26:51;97917.25;;;0.78;100.00
18795;BME280;29610;49.022;12.114;2023-03-03T06:29:20;97927.06;;;0.72;100.00
18795;BME280;29610;49.022;12.114;2023-03-03T06:31:49;97927.19;;;0.56;100.00
18795;BME280;29610;49.022;12.114;2023-03-03T06:34:27;97924.94;;;0.74;100.00
18795;BME280;29610;49.022;12.114;2023-03-03T06:37:12;97929.78;;;0.77;100.00
18795;BME280;29610;49.022;12.114;2023-03-03T06:39:40;97932.53;;;0.82;100.00
18795;BME280;29610;49.022;12.114;2023-03-03T06:42:09;97931.19;;;0.85;100.00
18795;BME280;29610;49.022;12.114;2023-03-03T06:44:38;97928.00;;;0.88;100.00
18795;BME280;29610;49.022;12.114;2023-03-03T06:47:07;97936.28;;;0.86;100.00
18795;BME280;29610;49.022;12.114;2023-03-03T06:49:37;97942.25;;;0.93;100.00
18795;BME280;29610;49.022;12.114;2023-03-03T06:52:12;97953.47;;;0.90;100.00
18795;BME280;29610;49.022;12.114;2023-03-03T06:54:41;97957.81;;;0.96;100.00
18795;BME280;29610;49.022;12.114;2023-03-03T06:57:18;97958.00;;;0.90;100.00
18795;BME280;29610;49.022;12.114;2023-03-03T06:59:52;97954.81;;;0.93;100.00
18795;BME280;29610;49.022;12.114;2023-03-03T07:02:22;97956.25;;;1.00;100.00
18795;BME280;29610;49.022;12.114;2023-03-03T07:04:54;97954.63;;;0.99;100.00
18795;BME280;29610;49.022;12.114;2023-03-03T07:07:25;97958.31;;;0.93;100.00
18795;BME280;29610;49.022;12.114;2023-03-03T07:09:55;97964.06;;;1.07;100.00
18795;BME280;29610;49.022;12.114;2023-03-03T07:12:28;97966.25;;;1.10;100.00
18795;BME280;29610;49.022;12.114;2023-03-03T07:15:14;97971.34;;;1.11;100.00
18795;BME280;29610;49.022;12.114;2023-03-03T07:17:46;97972.22;;;1.22;100.00
18795;BME280;29610;49.022;12.114;2023-03-03T07:20:22;97988.13;;;1.33;100.00
18795;BME280;29610;49.022;12.114;2023-03-03T07:22:51;97974.38;;;1.25;100.00
18795;BME280;29610;49.022;12.114;2023-03-03T07:25:29;97976.72;;;1.48;100.00
18795;BME280;29610;49.022;12.114;2023-03-03T07:28:10;97980.75;;;1.50;100.00
18795;BME280;29610;49.022;12.114;2023-03-03T07:30:41;97978.19;;;1.66;100.00
18795;BME280;29610;49.022;12.114;2023-03-03T07:33:24;97964.38;;;1.79;100.00
18795;BME280;29610;49.022;12.114;2023-03-03T07:35:57;97967.91;;;1.89;100.00
18795;BME280;29610;49.022;12.114;2023-03-03T07:38:34;97973.56;;;1.93;100.00
18795;BME280;29610;49.022;12.114;2023-03-03T07:41:11;97968.00;;;2.09;100.00
18795;BME280;29610;49.022;12.114;2023-03-03T07:43:49;97966.50;;;2.33;100.00
18795;BME280;29610;49.022;12.114;2023-03-03T07:46:26;97968.94;;;2.35;100.00
18795;BME280;29610;49.022;12.114;2023-03-03T07:48:59;97972.72;;;2.39;100.00
18795;BME280;29610;49.022;12.114;2023-03-03T07:51:37;97976.72;;;2.31;100.00
18795;BME280;29610;49.022;12.114;2023-03-03T07:54:28;97982.41;;;2.50;100.00
18795;BME280;29610;49.022;12.114;2023-03-03T07:57:12;97987.00;;;2.59;100.00
18795;BME280;29610;49.022;12.114;2023-03-03T07:59:48;97995.34;;;2.63;100.00
18795;BME280;29610;49.022;12.114;2023-03-03T08:02:37;97995.63;;;2.66;100.00
18795;BME280;29610;49.022;12.114;2023-03-03T08:05:30;97992.44;;;2.79;100.00
18795;BME280;29610;49.022;12.114;2023-03-03T08:08:26;97989.25;;;2.92;100.00
18795;BME280;29610;49.022;12.114;2023-03-03T08:10:57;97985.78;;;3.07;100.00
18795;BME280;29610;49.022;12.114;2023-03-03T08:13:34;97990.38;;;3.22;100.00
18795;BME280;29610;49.022;12.114;2023-03-03T08:16:35;97983.94;;;3.33;100.00
18795;BME280;29610;49.022;12.114;2023-03-03T08:19:05;97992.03;;;3.48;100.00
18795;BME280;29610;49.022;12.114;2023-03-03T08:21:35;97980.97;;;3.54;100.00
18795;BME280;29610;49.022;12.114;2023-03-03T08:24:05;97987.69;;;3.72;100.00
18795;BME280;29610;49.022;12.114;2023-03-03T08:26:34;97985.53;;;3.84;100.00
18795;BME280;29610;49.022;12.114;2023-03-03T08:29:03;97979.63;;;3.92;100.00
18795;BME280;29610;49.022;12.114;2023-03-03T08:31:32;97990.59;;;4.15;100.00
18795;BME280;29610;49.022;12.114;2023-03-03T08:34:08;97993.28;;;4.15;100.00
18795;BME280;29610;49.022;12.114;2023-03-03T08:36:37;97999.19;;;4.17;100.00
18795;BME280;29610;49.022;12.114;2023-03-03T08:39:07;98003.19;;;4.35;100.00
18795;BME280;29610;49.022;12.114;2023-03-03T08:41:36;97998.00;;;4.53;100.00
18795;BME280;29610;49.022;12.114;2023-03-03T08:44:07;98011.25;;;4.40;100.00
18795;BME280;29610;49.022;12.114;2023-03-03T08:46:36;97993.44;;;4.49;100.00
18795;BME280;29610;49.022;12.114;2023-03-03T08:49:05;97998.69;;;4.79;100.00
18795;BME280;29610;49.022;12.114;2023-03-03T08:51:34;98002.84;;;5.10;100.00
18795;BME280;29610;49.022;12.114;2023-03-03T08:54:02;98015.50;;;5.10;100.00
18795;BME280;29610;49.022;12.114;2023-03-03T08:56:33;98013.34;;;5.12;100.00
18795;BME280;29610;49.022;12.114;2023-03-03T08:59:01;98017.16;;;5.44;100.00
18795;BME280;29610;49.022;12.114;2023-03-03T09:01:31;98009.88;;;5.50;100.00
18795;BME280;29610;49.022;12.114;2023-03-03T09:04:00;98021.22;;;5.47;100.00
18795;BME280;29610;49.022;12.114;2023-03-03T09:06:28;98022.53;;;5.49;100.00
18795;BME280;29610;49.022;12.114;2023-03-03T09:08:57;98021.66;;;5.59;100.00
18795;BME280;29610;49.022;12.114;2023-03-03T09:11:28;98022.56;;;5.83;100.00
18795;BME280;29610;49.022;12.114;2023-03-03T09:14:06;98022.44;;;5.64;100.00
18795;BME280;29610;49.022;12.114;2023-03-03T09:16:40;98021.22;;;6.14;100.00
18795;BME280;29610;49.022;12.114;2023-03-03T09:19:22;98020.97;;;6.11;100.00
18795;BME280;29610;49.022;12.114;2023-03-03T09:21:53;98016.44;;;6.35;100.00
18795;BME280;29610;49.022;12.114;2023-03-03T09:24:25;98013.38;;;6.41;100.00
18795;BME280;29610;49.022;12.114;2023-03-03T09:26:57;98018.25;;;6.63;100.00
18795;BME280;29610;49.022;12.114;2023-03-03T09:29:29;98005.16;;;6.28;100.00
18795;BME280;29610;49.022;12.114;2023-03-03T09:32:07;98016.31;;;6.16;100.00
18795;BME280;29610;49.022;12.114;2023-03-03T09:34:46;98010.03;;;6.26;100.00
18795;BME280;29610;49.022;12.114;2023-03-03T09:37:22;98013.66;;;6.63;100.00
18795;BME280;29610;49.022;12.114;2023-03-03T09:39:53;98005.50;;;6.68;100.00
18795;BME280;29610;49.022;12.114;2023-03-03T09:42:49;98018.50;;;6.66;100.00
18795;BME280;29610;49.022;12.114;2023-03-03T09:45:41;98001.34;;;6.76;100.00
18795;BME280;29610;49.022;12.114;2023-03-03T09:48:46;98002.16;;;6.53;100.00
18795;BME280;29610;49.022;12.114;2023-03-03T09:51:51;98003.25;;;6.28;100.00
18795;BME280;29610;49.022;12.114;2023-03-03T09:54:46;98000.25;;;6.77;100.00
18795;BME280;29610;49.022;12.114;2023-03-03T09:57:30;98006.94;;;7.03;100.00
18795;BME280;29610;49.022;12.114;2023-03-03T10:00:23;98006.00;;;6.94;100.00
18795;BME280;29610;49.022;12.114;2023-03-03T10:03:20;97998.88;;;7.40;100.00
18795;BME280;29610;49.022;12.114;2023-03-03T10:05:58;97996.72;;;7.56;100.00
18795;BME280;29610;49.022;12.114;2023-03-03T10:08:44;98004.38;;;7.48;100.00
18795;BME280;29610;49.022;12.114;2023-03-03T10:11:26;98009.22;;;7.14;100.00
18795;BME280;29610;49.022;12.114;2023-03-03T10:14:25;97998.19;;;7.48;100.00
18795;BME280;29610;49.022;12.114;2023-03-03T10:17:31;98006.44;;;8.07;100.00
18795;BME280;29610;49.022;12.114;2023-03-03T10:20:24;98010.44;;;8.10;100.00
18795;BME280;29610;49.022;12.114;2023-03-03T10:23:20;98021.88;;;7.88;100.00
18795;BME280;29610;49.022;12.114;2023-03-03T10:26:10;98016.28;;;8.17;100.00
18795;BME280;29610;49.022;12.114;2023-03-03T10:29:11;98007.88;;;8.32;100.00
18795;BME280;29610;49.022;12.114;2023-03-03T10:32:16;98012.84;;;8.70;100.00
18795;BME280;29610;49.022;12.114;2023-03-03T10:38:28;98010.44;;;8.69;100.00
18795;BME280;29610;49.022;12.114;2023-03-03T10:41:21;98006.19;;;9.04;100.00
18795;BME280;29610;49.022;12.114;2023-03-03T10:44:36;98010.78;;;9.17;100.00
18795;BME280;29610;49.022;12.114;2023-03-03T10:47:36;98003.81;;;8.88;100.00
18795;BME280;29610;49.022;12.114;2023-03-03T10:50:20;97997.56;;;9.37;100.00
18795;BME280;29610;49.022;12.114;2023-03-03T10:53:02;97994.97;;;9.68;100.00
18795;BME280;29610;49.022;12.114;2023-03-03T10:55:45;97994.19;;;10.11;100.00
18795;BME280;29610;49.022;12.114;2023-03-03T10:58:36;97993.59;;;10.23;100.00
18795;BME280;29610;49.022;12.114;2023-03-03T11:01:25;97985.94;;;10.25;100.00
18795;BME280;29610;49.022;12.114;2023-03-03T11:04:30;97988.84;;;10.68;100.00
18795;BME280;29610;49.022;12.114;2023-03-03T11:07:09;97978.91;;;10.63;100.00
18795;BME280;29610;49.022;12.114;2023-03-03T11:10:07;97982.59;;;10.28;100.00
18795;BME280;29610;49.022;12.114;2023-03-03T11:12:57;97984.16;;;10.51;100.00
18795;BME280;29610;49.022;12.114;2023-03-03T11:15:58;97974.72;;;11.22;100.00
18795;BME280;29610;49.022;12.114;2023-03-03T11:18:45;97977.50;;;11.73;100.00
18795;BME280;29610;49.022;12.114;2023-03-03T11:21:22;97974.72;;;12.16;100.00
18795;BME280;29610;49.022;12.114;2023-03-03T11:27:31;97978.59;;;11.46;100.00
18795;BME280;29610;49.022;12.114;2023-03-03T11:30:35;97980.69;;;11.58;100.00
18795;BME280;29610;49.022;12.114;2023-03-03T11:33:14;97979.44;;;11.72;100.00
18795;BME280;29610;49.022;12.114;2023-03-03T11:35:53;97969.00;;;11.83;100.00
18795;BME280;29610;49.022;12.114;2023-03-03T11:38:47;97969.13;;;12.04;100.00
18795;BME280;29610;49.022;12.114;2023-03-03T11:41:32;97965.22;;;12.68;100.00
18795;BME280;29610;49.022;12.114;2023-03-03T11:44:21;97961.63;;;12.84;100.00
18795;BME280;29610;49.022;12.114;2023-03-03T11:46:58;97957.00;;;13.35;100.00
18795;BME280;29610;49.022;12.114;2023-03-03T11:49:37;97951.00;;;13.62;98.26
18795;BME280;29610;49.022;12.114;2023-03-03T11:52:23;97954.44;;;13.91;96.09
18795;BME280;29610;49.022;12.114;2023-03-03T11:55:01;97954.63;;;13.86;93.82
18795;BME280;29610;49.022;12.114;2023-03-03T11:57:37;97953.69;;;13.82;96.04
18795;BME280;29610;49.022;12.114;2023-03-03T12:00:25;97950.41;;;13.56;95.66
18795;BME280;29610;49.022;12.114;2023-03-03T12:03:15;97942.88;;;13.74;94.92
18795;BME280;29610;49.022;12.114;2023-03-03T12:06:04;97945.53;;;13.62;90.74
18795;BME280;29610;49.022;12.114;2023-03-03T12:09:02;97948.66;;;13.10;92.92
18795;BME280;29610;49.022;12.114;2023-03-03T12:11:45;97943.91;;;13.81;90.73
18795;BME280;29610;49.022;12.114;2023-03-03T12:14:34;97943.69;;;13.33;90.36
18795;BME280;29610;49.022;12.114;2023-03-03T12:17:19;97942.78;;;13.82;93.45
18795;BME280;29610;49.022;12.114;2023-03-03T12:20:02;97933.53;;;14.64;90.25
18795;BME280;29610;49.022;12.114;2023-03-03T12:22:40;97922.47;;;14.48;88.79
18795;BME280;29610;49.022;12.114;2023-03-03T12:25:31;97920.97;;;14.87;84.58
18795;BME280;29610;49.022;12.114;2023-03-03T12:28:08;97926.78;;;14.37;81.00
18795;BME280;29610;49.022;12.114;2023-03-03T12:31:15;97929.09;;;14.15;80.61
18795;BME280;29610;49.022;12.114;2023-03-03T12:33:54;97918.81;;;14.44;79.03
18795;BME280;29610;49.022;12.114;2023-03-03T12:36:49;97922.66;;;13.34;88.12
18795;BME280;29610;49.022;12.114;2023-03-03T12:39:36;97911.94;;;13.61;85.24
18795;BME280;29610;49.022;12.114;2023-03-03T12:42:16;97913.63;;;13.54;88.18
18795;BME280;29610;49.022;12.114;2023-03-03T12:45:01;97911.97;;;13.41;91.81
18795;BME280;29610;49.022;12.114;2023-03-03T12:47:40;97900.47;;;13.68;85.85
18795;BME280;29610;49.022;12.114;2023-03-03T12:50:29;97898.31;;;13.41;91.36
18795;BME280;29610;49.022;12.114;2023-03-03T12:53:16;97897.72;;;13.56;89.38
18795;BME280;29610;49.022;12.114;2023-03-03T12:55:52;97893.72;;;13.53;86.92
18795;BME280;29610;49.022;12.114;2023-03-03T12:58:45;97900.47;;;13.14;89.55
18795;BME280;29610;49.022;12.114;2023-03-03T13:01:36;97894.75;;;12.78;93.36
18795;BME280;29610;49.022;12.114;2023-03-03T13:04:17;97894.03;;;12.90;91.80
18795;BME280;29610;49.022;12.114;2023-03-03T13:06:58;97883.66;;;14.22;94.41
18795;BME280;29610;49.022;12.114;2023-03-03T13:09:50;97874.94;;;14.77;82.90
18795;BME280;29610;49.022;12.114;2023-03-03T13:12:35;97880.50;;;15.32;75.90
18795;BME280;29610;49.022;12.114;2023-03-03T13:15:15;97877.38;;;15.58;78.03
18795;BME280;29610;49.022;12.114;2023-03-03T13:18:08;97877.78;;;15.44;73.34
18795;BME280;29610;49.022;12.114;2023-03-03T13:20:48;97872.09;;;15.65;73.87
18795;BME280;29610;49.022;12.114;2023-03-03T13:23:33;97871.84;;;15.70;73.97
18795;BME280;29610;49.022;12.114;2023-03-03T13:26:17;97885.22;;;15.59;69.70
18795;BME280;29610;49.022;12.114;2023-03-03T13:29:04;97872.88;;;14.86;73.72
18795;BME280;29610;49.022;12.114;2023-03-03T13:31:40;97873.09;;;14.93;72.92
18795;BME280;29610;49.022;12.114;2023-03-03T13:34:22;97872.78;;;14.71;73.11
18795;BME280;29610;49.022;12.114;2023-03-03T13:37:03;97877.78;;;14.68;75.36
18795;BME280;29610;49.022;12.114;2023-03-03T13:39:41;97876.78;;;14.61;77.05
18795;BME280;29610;49.022;12.114;2023-03-03T13:42:23;97878.22;;;14.34;77.10
18795;BME280;29610;49.022;12.114;2023-03-03T13:44:55;97882.16;;;14.01;77.17
18795;BME280;29610;49.022;12.114;2023-03-03T13:47:36;97874.59;;;14.42;75.49
18795;BME280;29610;49.022;12.114;2023-03-03T13:50:23;97871.03;;;14.90;73.61